createdAt,value
2018-02-22T00:05:51.613Z,0.20
2018-02-22T00:09:22.521Z,0.20
2018-02-22T00:12:07.282Z,0.10
2018-02-22T00:21:31.637Z,0.10
2018-02-22T00:24:35.514Z,0.10
2018-02-22T00:27:28.772Z,0.10
2018-02-22T00:46:02.394Z,-0.10
2018-02-22T00:48:58.084Z,-0.10
2018-02-22T00:51:52.753Z,-0.10
2018-02-22T00:54:41.230Z,-0.10
2018-02-22T00:57:28.095Z,-0.10
2018-02-22T01:00:09.503Z,-0.10
2018-02-22T01:02:48.866Z,-0.10
2018-02-22T01:05:48.678Z,-0.10
2018-02-22T01:08:55.838Z,-0.20
2018-02-22T01:11:46.945Z,-0.20
2018-02-22T01:17:41.538Z,-0.10
2018-02-22T01:20:26.877Z,0.20
2018-02-22T01:23:11.950Z,-0.10
2018-02-22T01:26:04.669Z,-0.10
2018-02-22T01:31:31.239Z,-0.20
2018-02-22T01:34:28.828Z,-0.20
2018-02-22T01:37:27.439Z,-0.10
2018-02-22T01:40:21.950Z,-0.10
2018-02-22T01:43:01.158Z,-0.20
2018-02-22T01:45:41.358Z,-0.20
2018-02-22T01:48:31.560Z,-0.20
2018-02-22T01:51:16.832Z,-0.20
2018-02-22T01:54:14.411Z,-0.20
2018-02-22T01:56:54.485Z,-0.20
2018-02-22T01:59:35.058Z,-0.20
2018-02-22T02:02:17.045Z,-0.20
2018-02-22T02:05:13.071Z,-0.20
2018-02-22T02:07:53.181Z,-0.30
2018-02-22T02:11:02.311Z,-0.20
2018-02-22T02:13:52.572Z,-0.20
2018-02-22T02:16:34.225Z,-0.20
2018-02-22T02:35:11.853Z,-0.30
2018-02-22T02:37:56.050Z,-0.30
2018-02-22T02:40:43.206Z,-0.40
2018-02-22T02:43:24.356Z,-0.30
2018-02-22T02:46:11.242Z,-0.30
2018-02-22T02:49:33.915Z,-0.40
2018-02-22T02:52:28.136Z,-0.40
2018-02-22T02:55:11.260Z,-0.30
2018-02-22T03:03:37.679Z,-0.30
2018-02-22T03:06:16.886Z,-0.40
2018-02-22T03:08:55.937Z,-0.30
2018-02-22T03:11:37.029Z,-0.30
2018-02-22T03:14:14.479Z,-0.40
2018-02-22T03:20:01.479Z,-0.40
2018-02-22T03:22:45.105Z,-0.40
2018-02-22T03:25:27.774Z,-0.40
2018-02-22T03:28:10.274Z,-0.40
2018-02-22T03:33:59.977Z,-0.20
2018-02-22T03:36:46.832Z,-0.40
2018-02-22T03:39:26.911Z,-0.50
2018-02-22T03:42:05.457Z,-0.50
2018-02-22T03:45:13.147Z,-0.50
2018-02-22T03:48:04.470Z,-0.50
2018-02-22T03:50:50.103Z,-0.50
2018-02-22T03:59:19.276Z,-0.50
2018-02-22T04:08:21.069Z,-0.60
2018-02-22T04:11:03.779Z,-0.60
2018-02-22T04:13:46.911Z,-0.50
2018-02-22T04:16:40.705Z,-0.50
2018-02-22T04:19:23.469Z,-0.60
2018-02-22T04:22:04.146Z,-0.60
2018-02-22T04:24:52.446Z,-0.60
2018-02-22T04:27:44.429Z,-0.60
2018-02-22T04:30:32.365Z,-0.60
2018-02-22T04:33:17.295Z,-0.60
2018-02-22T04:36:06.807Z,-0.60
2018-02-22T04:38:52.908Z,-0.70
2018-02-22T04:41:47.040Z,-0.70
2018-02-22T04:44:29.145Z,-0.70
2018-02-22T05:03:16.506Z,-0.40
2018-02-22T05:06:07.366Z,-0.60
2018-02-22T05:08:53.982Z,-0.60
2018-02-22T05:11:44.906Z,-0.70
2018-02-22T05:14:38.365Z,-0.70
2018-02-22T05:17:25.450Z,-0.80
2018-02-22T05:20:24.445Z,-0.80
2018-02-22T09:23:49.210Z,8.30
2018-02-22T09:27:17.939Z,7.90
2018-02-22T09:33:35.591Z,7.70
2018-02-22T09:57:35.904Z,7.30
2018-02-22T10:01:06.552Z,7.30
2018-02-22T10:12:15.540Z,5.70
2018-02-22T10:22:36.350Z,4.90
2018-02-22T10:25:55.311Z,4.70
2018-02-22T11:42:27.558Z,5.30
2018-02-22T11:52:48.028Z,6.00
2018-02-22T12:45:38.416Z,6.50
2018-02-22T13:14:39.671Z,6.60
2018-02-22T13:36:16.299Z,6.20
2018-02-22T21:19:09.720Z,0.90
2018-02-22T21:42:34.995Z,0.70
2018-02-22T22:42:32.836Z,0.20
2018-02-22T22:45:59.569Z,0.30
2018-02-22T22:49:07.675Z,0.20
2018-02-22T22:55:00.010Z,0.10
2018-02-22T23:00:57.528Z,0.20
2018-02-22T23:04:10.019Z,0.10
2018-02-22T23:06:56.198Z,0.10
2018-02-22T23:09:48.730Z,0.10
2018-02-22T23:15:46.170Z,0.10
2018-02-22T23:19:22.252Z,0.10
2018-02-22T23:25:41.049Z,0.00
2018-02-22T23:28:28.703Z,0.00
2018-02-22T23:45:04.847Z,0.00
2018-02-22T23:48:07.223Z,0.00
2018-02-22T23:50:54.367Z,-0.10
2018-02-22T23:53:43.496Z,-0.10
2018-02-22T23:56:50.697Z,-0.10
2018-02-22T23:59:46.451Z,-0.10
